Time;durP1;ratioP1;P1;durP2;ratioP2;P2;SDS_P1;SDS_P2;PMS_P1;PMS_P2;Temp;Humidity;BMP_temperature;BMP_pressure;BME280_temperature;BME280_humidity;BME280_pressure;Samples;Min_cycle;Max_cycle;Signal;HPM_P1;HPM_P2
2023/06/13 00:00:42;;;;;;;25.97;24.47;;;;;;;;;;5076275;28;20469;-76
2023/06/13 00:03:13;;;;;;;28.17;26.50;;;;;;;;;;5076283;28;20465;-78
2023/06/13 00:05:40;;;;;;;27.63;25.83;;;;;;;;;;5075789;28;20408;-77
2023/06/13 00:08:07;;;;;;;27.37;25.77;;;;;;;;;;5076210;28;20420;-77
2023/06/13 00:10:36;;;;;;;27.80;26.10;;;;;;;;;;5076118;28;20497;-76
2023/06/13 00:13:03;;;;;;;27.33;25.63;;;;;;;;;;5076106;28;20480;-76
2023/06/13 00:15:31;;;;;;;27.60;25.70;;;;;;;;;;5074878;28;20469;-76
2023/06/13 00:17:58;;;;;;;25.30;23.80;;;;;;;;;;5075687;28;20826;-78
2023/06/13 00:20:26;;;;;;;27.80;26.10;;;;;;;;;;5075878;28;20488;-77
2023/06/13 00:22:55;;;;;;;26.90;25.40;;;;;;;;;;5076153;28;20512;-76
2023/06/13 00:25:22;;;;;;;26.07;24.57;;;;;;;;;;5075864;28;20969;-77
2023/06/13 00:27:51;;;;;;;26.20;24.60;;;;;;;;;;5077439;28;21007;-77
2023/06/13 00:30:18;;;;;;;27.33;25.57;;;;;;;;;;5078997;28;20485;-78
2023/06/13 00:32:45;;;;;;;26.83;25.33;;;;;;;;;;5078326;28;20904;-77
2023/06/13 00:35:13;;;;;;;28.20;26.30;;;;;;;;;;5075680;28;20466;-77
2023/06/13 00:37:40;;;;;;;26.83;25.23;;;;;;;;;;5075685;28;20460;-77
2023/06/13 00:40:08;;;;;;;26.50;25.00;;;;;;;;;;5075601;28;20855;-78
2023/06/13 00:42:35;;;;;;;28.40;26.37;;;;;;;;;;5076071;28;20942;-78
2023/06/13 00:45:19;;;;;;;27.80;26.13;;;;;;;;;;5075468;28;20473;-77
2023/06/13 00:47:46;;;;;;;28.07;26.20;;;;;;;;;;5075664;28;20408;-77
2023/06/13 00:50:15;;;;;;;28.67;26.40;;;;;;;;;;5075835;28;20467;-77
2023/06/13 00:52:42;;;;;;;28.30;26.20;;;;;;;;;;5074657;28;20450;-77
2023/06/13 00:55:10;;;;;;;26.60;25.00;;;;;;;;;;5075356;28;20490;-77
2023/06/13 00:57:39;;;;;;;29.10;27.20;;;;;;;;;;5074745;28;20982;-77
2023/06/13 01:00:08;;;;;;;27.20;25.60;;;;;;;;;;5075432;28;20436;-76
2023/06/13 01:02:37;;;;;;;27.10;25.50;;;;;;;;;;5075317;28;20454;-77
2023/06/13 01:05:05;;;;;;;26.97;25.30;;;;;;;;;;5075168;28;20481;-78
2023/06/13 01:07:33;;;;;;;26.43;24.83;;;;;;;;;;5074912;28;20460;-77
2023/06/13 01:10:00;;;;;;;27.77;26.07;;;;;;;;;;5074782;28;21029;-76
2023/06/13 01:12:32;;;;;;;26.80;24.90;;;;;;;;;;5074844;28;20984;-77
2023/06/13 01:15:03;;;;;;;26.23;24.53;;;;;;;;;;5074629;28;20480;-77
2023/06/13 01:17:33;;;;;;;27.10;25.50;;;;;;;;;;5075391;28;20481;-76
2023/06/13 01:20:04;;;;;;;26.20;24.70;;;;;;;;;;5074899;28;20557;-77
2023/06/13 01:22:37;;;;;;;27.07;25.47;;;;;;;;;;5075333;28;20423;-76
2023/06/13 01:25:08;;;;;;;27.23;25.63;;;;;;;;;;5074736;28;20515;-76
2023/06/13 01:27:37;;;;;;;26.83;25.13;;;;;;;;;;5074329;28;20504;-77
2023/06/13 01:30:05;;;;;;;27.70;26.10;;;;;;;;;;5074098;28;21281;-77
2023/06/13 01:32:32;;;;;;;26.90;25.00;;;;;;;;;;5074574;28;20445;-76
2023/06/13 01:35:00;;;;;;;26.40;24.70;;;;;;;;;;5074317;28;20454;-77
2023/06/13 01:37:27;;;;;;;27.30;25.70;;;;;;;;;;5073571;28;20466;-77
2023/06/13 01:39:54;;;;;;;28.03;26.23;;;;;;;;;;5074297;28;20471;-78
2023/06/13 01:42:21;;;;;;;26.67;25.17;;;;;;;;;;5074538;28;20452;-76
2023/06/13 01:44:50;;;;;;;26.90;25.30;;;;;;;;;;5074441;28;20484;-78
2023/06/13 01:47:21;;;;;;;26.00;24.50;;;;;;;;;;5073786;28;20466;-76
2023/06/13 01:49:54;;;;;;;27.10;25.40;;;;;;;;;;5074285;28;20535;-77
2023/06/13 01:52:25;;;;;;;26.17;24.73;;;;;;;;;;5073943;28;20450;-77
2023/06/13 01:54:56;;;;;;;27.40;25.80;;;;;;;;;;5074182;28;20400;-77
2023/06/13 01:57:26;;;;;;;26.90;24.90;;;;;;;;;;5072919;28;20465;-77
2023/06/13 01:59:55;;;;;;;27.03;25.43;;;;;;;;;;5074477;28;20465;-77
2023/06/13 02:02:23;;;;;;;26.63;25.13;;;;;;;;;;5074209;28;20428;-77
2023/06/13 02:04:50;;;;;;;26.53;25.03;;;;;;;;;;5074039;28;20491;-76
2023/06/13 02:07:18;;;;;;;27.90;26.00;;;;;;;;;;5073271;28;20469;-77
2023/06/13 02:09:45;;;;;;;27.60;25.90;;;;;;;;;;5073965;28;20502;-77
2023/06/13 02:12:13;;;;;;;27.80;26.00;;;;;;;;;;5073859;28;20462;-76
2023/06/13 02:14:40;;;;;;;27.33;25.63;;;;;;;;;;5073807;28;20512;-77
2023/06/13 02:17:08;;;;;;;26.47;24.83;;;;;;;;;;5072740;28;20470;-77
2023/06/13 02:19:36;;;;;;;27.07;25.57;;;;;;;;;;5073875;28;20484;-77
2023/06/13 02:22:03;;;;;;;27.30;25.70;;;;;;;;;;5074163;28;20469;-77
2023/06/13 02:24:30;;;;;;;26.53;24.93;;;;;;;;;;5073749;28;20457;-76
2023/06/13 02:26:57;;;;;;;27.87;26.07;;;;;;;;;;5072500;28;20449;-77
2023/06/13 02:29:24;;;;;;;27.43;25.83;;;;;;;;;;5073489;28;20450;-76
2023/06/13 02:31:51;;;;;;;27.77;26.07;;;;;;;;;;5073683;28;20454;-76
2023/06/13 02:34:20;;;;;;;27.37;25.70;;;;;;;;;;5073527;28;20455;-77
2023/06/13 02:36:47;;;;;;;27.77;25.97;;;;;;;;;;5073412;28;20420;-76
2023/06/13 02:39:13;;;;;;;27.07;25.47;;;;;;;;;;5072737;28;20538;-77
2023/06/13 02:41:40;;;;;;;28.00;26.20;;;;;;;;;;5072960;28;20494;-76
2023/06/13 02:44:07;;;;;;;28.50;26.30;;;;;;;;;;5073003;28;20446;-76
2023/06/13 02:46:35;;;;;;;27.43;25.67;;;;;;;;;;5073010;28;20457;-76
2023/06/13 02:49:02;;;;;;;27.63;25.73;;;;;;;;;;5072925;28;20474;-77
2023/06/13 02:51:30;;;;;;;27.37;25.77;;;;;;;;;;5073082;28;20488;-76
2023/06/13 02:53:57;;;;;;;28.03;26.30;;;;;;;;;;5073262;28;20938;-77
2023/06/13 02:56:26;;;;;;;27.57;25.67;;;;;;;;;;5072829;28;20428;-76
2023/06/13 02:58:53;;;;;;;28.80;26.90;;;;;;;;;;5072763;28;20493;-77
2023/06/13 03:01:20;;;;;;;26.73;25.13;;;;;;;;;;5073173;28;20466;-78
2023/06/13 03:03:47;;;;;;;26.93;25.33;;;;;;;;;;5073525;28;20524;-77
2023/06/13 03:06:17;;;;;;;27.10;25.50;;;;;;;;;;5072877;28;20867;-77
2023/06/13 03:08:45;;;;;;;27.40;25.70;;;;;;;;;;5072837;28;20447;-76
2023/06/13 03:11:13;;;;;;;25.90;24.20;;;;;;;;;;5072319;28;20848;-77
2023/06/13 03:13:40;;;;;;;26.60;25.10;;;;;;;;;;5072333;28;20453;-77
2023/06/13 03:16:08;;;;;;;27.17;25.27;;;;;;;;;;5072222;28;20519;-77
2023/06/13 03:18:36;;;;;;;26.87;25.27;;;;;;;;;;5072945;28;20449;-77
2023/06/13 03:21:03;;;;;;;26.20;24.70;;;;;;;;;;5072972;28;20448;-77
2023/06/13 03:23:31;;;;;;;27.00;25.40;;;;;;;;;;5073557;28;20531;-77
2023/06/13 03:26:00;;;;;;;28.03;26.03;;;;;;;;;;5072617;28;20803;-78
2023/06/13 03:28:27;;;;;;;27.57;25.67;;;;;;;;;;5073045;28;20459;-77
2023/06/13 03:30:57;;;;;;;27.77;26.00;;;;;;;;;;5072232;28;20481;-77
2023/06/13 03:33:24;;;;;;;28.33;26.63;;;;;;;;;;5072758;28;20450;-77
2023/06/13 03:35:52;;;;;;;26.90;25.23;;;;;;;;;;5072145;28;20924;-76
2023/06/13 03:38:19;;;;;;;26.03;24.20;;;;;;;;;;5073058;28;20453;-77
2023/06/13 03:40:46;;;;;;;25.97;24.37;;;;;;;;;;5072278;28;20463;-76
2023/06/13 03:43:15;;;;;;;25.90;24.20;;;;;;;;;;5072885;28;20424;-77
2023/06/13 03:45:42;;;;;;;26.67;25.03;;;;;;;;;;5072509;28;20503;-77
2023/06/13 03:48:09;;;;;;;27.23;25.53;;;;;;;;;;5072866;28;20449;-77
2023/06/13 03:50:36;;;;;;;25.60;24.00;;;;;;;;;;5071692;28;20489;-76
2023/06/13 03:53:03;;;;;;;25.20;23.70;;;;;;;;;;5072989;28;20450;-76
2023/06/13 03:55:32;;;;;;;24.93;23.43;;;;;;;;;;5072381;28;20411;-77
2023/06/13 03:57:59;;;;;;;25.10;23.50;;;;;;;;;;5072887;28;20434;-77
2023/06/13 04:00:27;;;;;;;25.80;24.20;;;;;;;;;;5072279;28;20501;-77
2023/06/13 04:02:55;;;;;;;26.23;24.43;;;;;;;;;;5073002;28;20453;-78
2023/06/13 04:05:22;;;;;;;26.23;24.60;;;;;;;;;;5072512;28;20440;-76
2023/06/13 04:07:49;;;;;;;26.60;24.97;;;;;;;;;;5072584;28;20432;-78
2023/06/13 04:10:16;;;;;;;27.77;25.50;;;;;;;;;;5071732;28;20468;-78
2023/06/13 04:12:44;;;;;;;26.50;24.90;;;;;;;;;;5071434;28;20936;-76
2023/06/13 04:15:11;;;;;;;26.53;24.80;;;;;;;;;;5072322;28;20930;-78
2023/06/13 04:17:39;;;;;;;26.70;24.80;;;;;;;;;;5074424;28;20833;-77
2023/06/13 04:20:08;;;;;;;27.93;26.03;;;;;;;;;;5072320;28;20455;-76
2023/06/13 04:22:36;;;;;;;26.20;24.50;;;;;;;;;;5071281;28;20472;-76
2023/06/13 04:25:04;;;;;;;26.03;24.53;;;;;;;;;;5072167;28;20428;-76
2023/06/13 04:27:31;;;;;;;25.87;24.07;;;;;;;;;;5074948;28;20446;-77
2023/06/13 04:29:59;;;;;;;25.70;24.00;;;;;;;;;;5075726;28;20535;-76
2023/06/13 04:32:28;;;;;;;27.00;25.30;;;;;;;;;;5075101;28;20878;-76
2023/06/13 04:34:58;;;;;;;26.50;24.90;;;;;;;;;;5075608;28;20525;-77
2023/06/13 04:37:25;;;;;;;26.10;24.47;;;;;;;;;;5075035;28;20508;-76
2023/06/13 04:39:52;;;;;;;26.77;25.07;;;;;;;;;;5075308;28;20564;-77
2023/06/13 04:42:24;;;;;;;25.67;24.07;;;;;;;;;;5075298;28;20443;-76
2023/06/13 04:44:52;;;;;;;26.17;24.37;;;;;;;;;;5075617;28;20457;-77
2023/06/13 04:47:19;;;;;;;25.47;23.87;;;;;;;;;;5074751;28;20456;-77
2023/06/13 04:49:46;;;;;;;26.57;24.97;;;;;;;;;;5075254;28;20519;-77
2023/06/13 04:52:15;;;;;;;25.70;24.10;;;;;;;;;;5074989;28;20559;-77
2023/06/13 04:54:42;;;;;;;26.53;24.70;;;;;;;;;;5075441;28;20453;-77
2023/06/13 04:57:10;;;;;;;26.60;24.90;;;;;;;;;;5075039;28;20450;-77
2023/06/13 04:59:37;;;;;;;26.87;24.87;;;;;;;;;;5078184;28;20444;-77
2023/06/13 05:02:04;;;;;;;26.67;24.90;;;;;;;;;;5075783;28;20477;-78
2023/06/13 05:04:31;;;;;;;25.70;24.20;;;;;;;;;;5075219;28;20462;-77
2023/06/13 05:06:59;;;;;;;26.10;24.43;;;;;;;;;;5075154;28;20424;-76
2023/06/13 05:09:27;;;;;;;25.87;24.17;;;;;;;;;;5075531;28;20523;-77
2023/06/13 05:11:54;;;;;;;26.60;25.00;;;;;;;;;;5075066;28;20489;-78
2023/06/13 05:14:21;;;;;;;25.97;24.17;;;;;;;;;;5074449;28;20523;-76
2023/06/13 05:16:48;;;;;;;24.20;22.50;;;;;;;;;;5074593;28;20454;-77
2023/06/13 05:19:17;;;;;;;25.57;23.97;;;;;;;;;;5074825;28;20938;-77
2023/06/13 05:21:46;;;;;;;26.10;24.30;;;;;;;;;;5075461;28;20500;-77
2023/06/13 05:24:13;;;;;;;26.77;25.07;;;;;;;;;;5074775;28;20492;-78
2023/06/13 05:26:41;;;;;;;27.03;25.23;;;;;;;;;;5075206;28;20559;-78
2023/06/13 05:29:09;;;;;;;24.40;22.93;;;;;;;;;;5081640;28;20428;-77
2023/06/13 05:31:36;;;;;;;24.73;23.23;;;;;;;;;;5082850;28;20484;-78
2023/06/13 05:34:03;;;;;;;26.43;24.30;;;;;;;;;;5080897;28;20509;-78
2023/06/13 05:36:30;;;;;;;25.60;23.80;;;;;;;;;;5074932;28;21024;-78
2023/06/13 05:38:57;;;;;;;26.20;24.40;;;;;;;;;;5074464;28;20458;-78
2023/06/13 05:41:24;;;;;;;25.40;23.57;;;;;;;;;;5075009;28;20556;-78
2023/06/13 05:43:52;;;;;;;24.70;22.90;;;;;;;;;;5074961;28;20909;-77
2023/06/13 05:46:19;;;;;;;25.10;23.50;;;;;;;;;;5074203;28;20506;-77
2023/06/13 05:48:46;;;;;;;24.60;23.20;;;;;;;;;;5074982;28;20474;-77
2023/06/13 05:51:14;;;;;;;24.93;23.37;;;;;;;;;;5074812;28;20513;-78
2023/06/13 05:53:41;;;;;;;25.27;23.70;;;;;;;;;;5074604;28;20450;-78
2023/06/13 05:56:08;;;;;;;24.90;23.20;;;;;;;;;;5073980;28;20539;-77
2023/06/13 05:58:35;;;;;;;25.23;23.50;;;;;;;;;;5074963;28;20531;-77
2023/06/13 06:01:04;;;;;;;26.03;24.40;;;;;;;;;;5074495;28;20496;-78
2023/06/13 06:03:31;;;;;;;25.17;23.53;;;;;;;;;;5074396;28;20871;-77
2023/06/13 06:05:58;;;;;;;26.00;24.40;;;;;;;;;;5073339;28;20478;-78
2023/06/13 06:08:25;;;;;;;25.40;23.90;;;;;;;;;;5075163;28;20474;-77
2023/06/13 06:10:52;;;;;;;26.43;24.53;;;;;;;;;;5073618;28;20473;-77
2023/06/13 06:13:19;;;;;;;25.57;24.07;;;;;;;;;;5076870;28;20424;-78
2023/06/13 06:15:46;;;;;;;26.27;24.50;;;;;;;;;;5073742;28;21014;-78
2023/06/13 06:18:15;;;;;;;25.63;24.03;;;;;;;;;;5074559;28;20494;-78
2023/06/13 06:20:42;;;;;;;24.53;23.07;;;;;;;;;;5074061;28;20451;-77
2023/06/13 06:23:09;;;;;;;25.17;23.60;;;;;;;;;;5074419;28;20454;-77
2023/06/13 06:25:36;;;;;;;25.43;23.83;;;;;;;;;;5073778;28;20457;-76
2023/06/13 06:28:03;;;;;;;24.90;23.30;;;;;;;;;;5073209;28;20444;-77
2023/06/13 06:30:31;;;;;;;25.57;24.07;;;;;;;;;;5073814;28;20462;-78
2023/06/13 06:32:58;;;;;;;25.60;23.93;;;;;;;;;;5074240;28;20493;-77
2023/06/13 06:35:26;;;;;;;25.53;23.80;;;;;;;;;;5073811;28;20928;-78
2023/06/13 06:37:53;;;;;;;25.00;23.50;;;;;;;;;;5074314;28;20514;-78
2023/06/13 06:40:20;;;;;;;26.70;25.10;;;;;;;;;;5074277;28;20531;-78
2023/06/13 06:42:47;;;;;;;25.33;23.23;;;;;;;;;;5073194;28;20569;-77
2023/06/13 06:45:14;;;;;;;24.07;22.67;;;;;;;;;;5074557;28;20412;-78
2023/06/13 06:47:41;;;;;;;26.33;24.70;;;;;;;;;;5073252;28;20465;-78
2023/06/13 06:50:09;;;;;;;25.50;24.00;;;;;;;;;;5073033;28;21192;-77
2023/06/13 06:52:37;;;;;;;25.47;23.97;;;;;;;;;;5073944;28;20482;-78
2023/06/13 06:55:05;;;;;;;25.73;24.07;;;;;;;;;;5074408;28;20512;-77
2023/06/13 06:57:32;;;;;;;25.30;23.70;;;;;;;;;;5074587;28;20815;-78
2023/06/13 06:59:59;;;;;;;25.87;24.37;;;;;;;;;;5074071;28;20502;-76
2023/06/13 07:02:26;;;;;;;26.17;24.20;;;;;;;;;;5075378;28;20472;-78
2023/06/13 07:04:53;;;;;;;25.13;23.73;;;;;;;;;;5074073;28;20449;-76
2023/06/13 07:07:20;;;;;;;25.43;23.77;;;;;;;;;;5072569;28;20454;-76
2023/06/13 07:09:48;;;;;;;26.13;24.53;;;;;;;;;;5072171;28;20968;-76
2023/06/13 07:12:15;;;;;;;26.33;24.83;;;;;;;;;;5072756;28;20994;-77
2023/06/13 07:14:42;;;;;;;24.93;23.17;;;;;;;;;;5073143;28;20504;-77
2023/06/13 07:17:09;;;;;;;24.67;23.17;;;;;;;;;;5072482;28;20428;-77
2023/06/13 07:19:36;;;;;;;24.80;23.40;;;;;;;;;;5072592;28;20474;-77
2023/06/13 07:22:04;;;;;;;25.87;24.27;;;;;;;;;;5072354;28;20513;-77
2023/06/13 07:24:31;;;;;;;24.77;23.47;;;;;;;;;;5073051;28;20416;-78
2023/06/13 07:26:59;;;;;;;24.50;23.10;;;;;;;;;;5074685;28;20715;-79
2023/06/13 07:29:26;;;;;;;24.20;22.77;;;;;;;;;;5074104;28;20408;-77
2023/06/13 07:31:53;;;;;;;24.53;23.10;;;;;;;;;;5072373;28;20492;-77
2023/06/13 07:34:20;;;;;;;24.77;23.27;;;;;;;;;;5073000;28;20496;-77
2023/06/13 07:36:48;;;;;;;24.67;23.27;;;;;;;;;;5072544;28;20467;-77
2023/06/13 07:39:15;;;;;;;24.87;23.43;;;;;;;;;;5072865;28;20431;-77
2023/06/13 07:41:44;;;;;;;24.60;23.00;;;;;;;;;;5072486;28;20961;-77
2023/06/13 07:44:12;;;;;;;24.23;22.73;;;;;;;;;;5072910;28;20515;-77
2023/06/13 07:46:39;;;;;;;26.13;23.80;;;;;;;;;;5072067;28;20486;-77
2023/06/13 07:49:06;;;;;;;25.93;24.27;;;;;;;;;;5074924;28;20478;-82
2023/06/13 07:51:33;;;;;;;25.37;23.93;;;;;;;;;;5076745;28;20551;-77
2023/06/13 07:54:00;;;;;;;24.57;23.00;;;;;;;;;;5072376;28;20474;-77
2023/06/13 07:56:28;;;;;;;24.30;22.73;;;;;;;;;;5072250;28;20428;-75
2023/06/13 07:58:55;;;;;;;26.40;24.20;;;;;;;;;;5072641;28;20455;-77
2023/06/13 08:01:23;;;;;;;25.03;23.53;;;;;;;;;;5073729;28;20961;-77
2023/06/13 08:03:50;;;;;;;25.73;24.13;;;;;;;;;;5076750;28;20474;-77
2023/06/13 08:06:17;;;;;;;23.90;22.43;;;;;;;;;;5075966;28;20428;-77
2023/06/13 08:08:44;;;;;;;24.70;23.30;;;;;;;;;;5075783;28;20912;-78
2023/06/13 08:11:12;;;;;;;26.27;24.47;;;;;;;;;;5076360;28;20482;-78
2023/06/13 08:13:39;;;;;;;25.40;23.90;;;;;;;;;;5077182;28;20515;-78
2023/06/13 08:16:06;;;;;;;25.37;23.87;;;;;;;;;;5076637;28;20813;-78
2023/06/13 08:18:36;;;;;;;26.00;24.50;;;;;;;;;;5077326;28;20443;-77
2023/06/13 08:21:03;;;;;;;25.23;23.63;;;;;;;;;;5077175;28;20474;-78
2023/06/13 08:23:30;;;;;;;26.70;24.90;;;;;;;;;;5077979;28;20428;-78
2023/06/13 08:25:57;;;;;;;26.43;24.57;;;;;;;;;;5076825;28;20450;-77
2023/06/13 08:28:25;;;;;;;26.40;24.40;;;;;;;;;;5076476;28;20416;-77
2023/06/13 08:30:52;;;;;;;25.83;24.13;;;;;;;;;;5075716;28;20480;-78
2023/06/13 08:33:21;;;;;;;26.60;24.90;;;;;;;;;;5076276;28;20533;-77
2023/06/13 08:35:49;;;;;;;26.60;24.70;;;;;;;;;;5076160;28;20457;-79
2023/06/13 08:38:17;;;;;;;26.43;24.60;;;;;;;;;;5076764;28;20431;-80
2023/06/13 08:40:44;;;;;;;26.47;24.70;;;;;;;;;;5076824;28;20459;-79
2023/06/13 08:43:11;;;;;;;25.83;24.23;;;;;;;;;;5077463;28;20441;-79
2023/06/13 08:45:38;;;;;;;26.40;24.60;;;;;;;;;;5076280;28;20435;-78
2023/06/13 08:48:06;;;;;;;26.13;24.43;;;;;;;;;;5076235;28;20445;-77
2023/06/13 08:50:33;;;;;;;26.20;24.50;;;;;;;;;;5076015;28;20440;-77
2023/06/13 08:53:02;;;;;;;25.77;24.07;;;;;;;;;;5075842;28;20846;-77
2023/06/13 08:55:30;;;;;;;26.60;24.87;;;;;;;;;;5077719;28;20477;-77
2023/06/13 08:57:58;;;;;;;25.60;24.00;;;;;;;;;;5076385;28;20427;-77
2023/06/13 09:00:25;;;;;;;26.13;24.30;;;;;;;;;;5075395;28;20460;-82
2023/06/13 09:02:52;;;;;;;27.33;25.57;;;;;;;;;;5077615;28;20462;-76
2023/06/13 09:05:19;;;;;;;27.60;25.37;;;;;;;;;;5077587;28;20469;-79
2023/06/13 09:07:47;;;;;;;25.03;23.53;;;;;;;;;;5078590;28;20963;-77
2023/06/13 09:10:15;;;;;;;25.53;23.70;;;;;;;;;;5080800;28;20559;-78
2023/06/13 09:12:43;;;;;;;26.10;24.50;;;;;;;;;;5080094;28;20936;-79
2023/06/13 09:15:11;;;;;;;26.70;25.07;;;;;;;;;;5081172;28;20429;-79
2023/06/13 09:17:38;;;;;;;26.00;24.30;;;;;;;;;;5083949;28;20435;-79
2023/06/13 09:20:07;;;;;;;26.90;25.00;;;;;;;;;;5080244;28;20498;-79
2023/06/13 09:22:34;;;;;;;26.70;25.00;;;;;;;;;;5079362;28;20445;-78
2023/06/13 09:25:04;;;;;;;26.53;24.63;;;;;;;;;;5079041;28;20930;-81
2023/06/13 09:27:32;;;;;;;26.70;25.00;;;;;;;;;;5079913;28;20444;-82
2023/06/13 09:30:00;;;;;;;27.13;25.33;;;;;;;;;;5084303;28;20520;-78
2023/06/13 09:32:27;;;;;;;26.60;25.00;;;;;;;;;;5079704;28;20464;-78
2023/06/13 09:34:54;;;;;;;26.20;24.47;;;;;;;;;;5079181;28;20913;-78
2023/06/13 09:37:24;;;;;;;27.10;25.10;;;;;;;;;;5077713;28;20500;-78
2023/06/13 09:39:52;;;;;;;26.73;24.93;;;;;;;;;;5079193;28;20516;-78
2023/06/13 09:42:21;;;;;;;27.80;25.93;;;;;;;;;;5086504;28;20424;-78
2023/06/13 09:44:50;;;;;;;27.10;25.10;;;;;;;;;;5088282;28;20404;-78
2023/06/13 09:47:22;;;;;;;26.83;25.13;;;;;;;;;;5086266;28;20450;-78
2023/06/13 09:49:52;;;;;;;27.30;25.57;;;;;;;;;;5087886;28;20440;-78
2023/06/13 09:52:23;;;;;;;27.50;25.70;;;;;;;;;;5090008;28;20512;-77
2023/06/13 09:54:51;;;;;;;28.83;26.83;;;;;;;;;;5090632;28;20537;-77
2023/06/13 09:57:18;;;;;;;27.50;25.80;;;;;;;;;;5086851;28;20427;-78
2023/06/13 09:59:48;;;;;;;28.00;26.10;;;;;;;;;;5080647;28;20440;-78
2023/06/13 10:02:17;;;;;;;27.47;25.57;;;;;;;;;;5086578;28;20415;-77
2023/06/13 10:04:44;;;;;;;27.70;25.83;;;;;;;;;;5090059;28;20469;-76
2023/06/13 10:07:12;;;;;;;26.53;24.83;;;;;;;;;;5077812;28;20445;-78
2023/06/13 10:09:39;;;;;;;26.87;25.10;;;;;;;;;;5075283;28;20995;-76
2023/06/13 10:12:08;;;;;;;27.23;25.33;;;;;;;;;;5074758;28;21039;-79
2023/06/13 10:14:37;;;;;;;28.20;26.07;;;;;;;;;;5074933;28;20462;-78
2023/06/13 10:17:08;;;;;;;27.87;26.17;;;;;;;;;;5076176;28;20432;-78
2023/06/13 10:19:38;;;;;;;28.00;26.07;;;;;;;;;;5088285;28;20468;-78
2023/06/13 10:22:05;;;;;;;28.50;26.40;;;;;;;;;;5087473;28;20421;-80
2023/06/13 10:24:33;;;;;;;26.70;25.00;;;;;;;;;;5078363;28;20857;-80
2023/06/13 10:27:01;;;;;;;26.73;25.13;;;;;;;;;;5084402;28;20416;-79
2023/06/13 10:29:46;;;;;;;26.13;24.50;;;;;;;;;;5076979;28;20507;-79
2023/06/13 10:32:23;;;;;;;26.47;24.77;;;;;;;;;;5075525;28;20523;-79
2023/06/13 10:35:01;;;;;;;26.80;25.03;;;;;;;;;;5084407;28;20434;-79
2023/06/13 10:37:39;;;;;;;26.60;25.00;;;;;;;;;;5091371;28;20422;-79
2023/06/13 10:40:17;;;;;;;28.07;25.63;;;;;;;;;;5075258;28;20838;-79
2023/06/13 10:42:46;;;;;;;26.73;25.13;;;;;;;;;;5075465;28;20400;-79
2023/06/13 10:45:18;;;;;;;26.93;25.23;;;;;;;;;;5075480;28;20424;-78
2023/06/13 10:47:45;;;;;;;28.17;26.27;;;;;;;;;;5073667;28;20470;-77
2023/06/13 10:50:16;;;;;;;26.27;24.57;;;;;;;;;;5074785;28;20496;-77
2023/06/13 10:52:44;;;;;;;27.53;25.83;;;;;;;;;;5074371;28;20510;-78
2023/06/13 10:55:13;;;;;;;26.70;25.10;;;;;;;;;;5074456;28;20443;-78
2023/06/13 10:57:50;;;;;;;25.87;24.27;;;;;;;;;;5073802;28;20444;-79
2023/06/13 11:00:24;;;;;;;27.37;25.53;;;;;;;;;;5073918;28;20812;-79
2023/06/13 11:02:58;;;;;;;27.40;25.80;;;;;;;;;;5074271;28;20409;-77
2023/06/13 11:05:26;;;;;;;27.37;25.80;;;;;;;;;;5073690;28;20461;-79
2023/06/13 11:07:55;;;;;;;28.33;26.63;;;;;;;;;;5073598;28;20425;-79
2023/06/13 11:10:23;;;;;;;26.50;24.80;;;;;;;;;;5073996;28;20437;-78
2023/06/13 11:12:53;;;;;;;27.00;25.40;;;;;;;;;;5073708;28;20862;-77
2023/06/13 11:15:21;;;;;;;28.20;26.13;;;;;;;;;;5073333;28;20440;-78
2023/06/13 11:18:02;;;;;;;27.67;26.00;;;;;;;;;;5072909;28;20831;-79
2023/06/13 11:20:31;;;;;;;27.70;26.00;;;;;;;;;;5073366;28;20512;-79
2023/06/13 11:22:58;;;;;;;27.13;25.53;;;;;;;;;;5079427;28;20420;-78
2023/06/13 11:25:25;;;;;;;27.50;25.90;;;;;;;;;;5073343;28;20833;-79
2023/06/13 11:27:52;;;;;;;27.90;26.07;;;;;;;;;;5072847;28;20450;-78
2023/06/13 11:30:19;;;;;;;27.10;25.30;;;;;;;;;;5080105;28;20527;-78
2023/06/13 11:32:47;;;;;;;27.07;25.47;;;;;;;;;;5073550;28;20502;-79
2023/06/13 11:35:16;;;;;;;29.53;26.37;;;;;;;;;;5073081;28;20434;-79
2023/06/13 11:37:48;;;;;;;27.13;25.43;;;;;;;;;;5076250;28;20424;-78
2023/06/13 11:40:19;;;;;;;25.93;24.33;;;;;;;;;;5077318;28;20460;-79
2023/06/13 11:42:46;;;;;;;26.77;25.00;;;;;;;;;;5077272;28;20417;-78
2023/06/13 11:45:14;;;;;;;26.87;25.23;;;;;;;;;;5077362;28;20450;-76
2023/06/13 11:47:41;;;;;;;27.07;25.27;;;;;;;;;;5076956;28;20450;-76
2023/06/13 11:50:08;;;;;;;26.40;24.70;;;;;;;;;;5077019;28;20470;-76
2023/06/13 11:52:35;;;;;;;26.57;24.93;;;;;;;;;;5076822;28;20432;-76
2023/06/13 11:55:16;;;;;;;27.83;26.03;;;;;;;;;;5076994;28;20500;-78
2023/06/13 11:57:48;;;;;;;26.47;24.77;;;;;;;;;;5077315;28;20435;-76
2023/06/13 12:00:15;;;;;;;26.20;24.50;;;;;;;;;;5076939;28;20456;-77
2023/06/13 12:02:43;;;;;;;27.50;25.60;;;;;;;;;;5076873;28;20412;-77
2023/06/13 12:05:10;;;;;;;27.20;25.50;;;;;;;;;;5076940;28;20450;-78
2023/06/13 12:07:39;;;;;;;25.97;24.30;;;;;;;;;;5076468;28;20799;-80
2023/06/13 12:10:08;;;;;;;27.70;25.90;;;;;;;;;;5078135;28;20488;-77
2023/06/13 12:12:35;;;;;;;26.60;24.70;;;;;;;;;;5076783;28;20462;-78
2023/06/13 12:15:03;;;;;;;27.30;25.40;;;;;;;;;;5076844;28;20484;-78
2023/06/13 12:17:30;;;;;;;27.87;25.73;;;;;;;;;;5077041;28;20445;-78
2023/06/13 12:20:10;;;;;;;26.53;24.93;;;;;;;;;;5076652;28;20540;-79
2023/06/13 12:22:37;;;;;;;26.93;25.13;;;;;;;;;;5077287;28;20428;-79
2023/06/13 12:25:05;;;;;;;27.13;25.43;;;;;;;;;;5077114;28;20548;-78
2023/06/13 12:27:33;;;;;;;28.07;25.87;;;;;;;;;;5076399;28;20424;-80
2023/06/13 12:30:09;;;;;;;27.73;26.03;;;;;;;;;;5076344;28;20463;-79
2023/06/13 12:32:38;;;;;;;27.43;25.53;;;;;;;;;;5076398;28;20808;-79
2023/06/13 12:35:05;;;;;;;27.87;25.90;;;;;;;;;;5075953;28;20461;-77
2023/06/13 12:37:37;;;;;;;28.10;26.10;;;;;;;;;;5075882;28;20437;-79
2023/06/13 12:40:10;;;;;;;26.83;25.13;;;;;;;;;;5076162;28;20481;-85
2023/06/13 12:42:42;;;;;;;27.03;25.43;;;;;;;;;;5075545;28;21023;-82
2023/06/13 12:45:10;;;;;;;28.20;26.30;;;;;;;;;;5076860;28;20444;-81
2023/06/13 12:47:37;;;;;;;28.10;25.90;;;;;;;;;;5075827;28;20804;-81
2023/06/13 12:50:12;;;;;;;26.80;25.20;;;;;;;;;;5076685;28;20440;-83
2023/06/13 12:52:39;;;;;;;27.20;25.30;;;;;;;;;;5076985;28;20458;-82
2023/06/13 12:55:06;;;;;;;27.10;25.40;;;;;;;;;;5077694;28;20424;-82
2023/06/13 12:57:34;;;;;;;26.97;25.03;;;;;;;;;;5079460;28;20421;-82
2023/06/13 13:00:06;;;;;;;25.40;23.80;;;;;;;;;;5077166;28;20445;-83
2023/06/13 13:02:33;;;;;;;27.00;25.20;;;;;;;;;;5076184;28;20854;-83
2023/06/13 13:05:01;;;;;;;27.57;25.87;;;;;;;;;;5076784;28;20470;-82
2023/06/13 13:07:29;;;;;;;26.93;25.30;;;;;;;;;;5076579;28;20499;-84
2023/06/13 13:09:56;;;;;;;27.70;26.00;;;;;;;;;;5077547;28;20925;-83
2023/06/13 13:12:25;;;;;;;27.83;26.13;;;;;;;;;;5076001;28;20450;-83
2023/06/13 13:14:52;;;;;;;27.33;25.43;;;;;;;;;;5076687;28;20478;-83
2023/06/13 13:17:20;;;;;;;27.20;25.50;;;;;;;;;;5075978;28;20450;-84
2023/06/13 13:19:52;;;;;;;26.97;25.27;;;;;;;;;;5076512;28;20440;-84
2023/06/13 13:22:19;;;;;;;27.53;25.77;;;;;;;;;;5076469;28;20438;-84
2023/06/13 13:24:47;;;;;;;27.67;26.07;;;;;;;;;;5067902;28;20459;-83
2023/06/13 13:27:14;;;;;;;27.90;26.10;;;;;;;;;;5075149;28;20540;-84
2023/06/13 13:29:41;;;;;;;28.07;26.17;;;;;;;;;;5076061;28;21036;-84
2023/06/13 13:32:09;;;;;;;27.90;26.20;;;;;;;;;;5076080;28;20439;-83
2023/06/13 13:34:38;;;;;;;27.77;25.90;;;;;;;;;;5075851;28;20831;-79
2023/06/13 13:37:05;;;;;;;28.27;26.47;;;;;;;;;;5074199;28;20450;-78
2023/06/13 13:39:32;;;;;;;28.07;26.37;;;;;;;;;;5059345;28;20499;-78
2023/06/13 13:41:59;;;;;;;27.43;25.57;;;;;;;;;;5069175;28;20425;-77
2023/06/13 13:44:27;;;;;;;27.53;25.83;;;;;;;;;;5074260;28;20440;-76
2023/06/13 13:46:54;;;;;;;28.80;27.13;;;;;;;;;;5073853;28;20450;-77
2023/06/13 13:49:21;;;;;;;27.50;25.90;;;;;;;;;;5073341;28;20441;-77
2023/06/13 13:51:50;;;;;;;27.73;25.83;;;;;;;;;;5074684;28;21004;-86
2023/06/13 13:54:17;;;;;;;29.17;27.17;;;;;;;;;;5075955;28;20978;-82
2023/06/13 13:56:44;;;;;;;28.70;26.80;;;;;;;;;;5073074;28;20469;-76
2023/06/13 13:59:12;;;;;;;27.10;25.40;;;;;;;;;;5074370;28;20468;-83
2023/06/13 14:01:38;;;;;;;26.53;24.93;;;;;;;;;;5075746;28;20458;-84
2023/06/13 14:04:05;;;;;;;28.50;26.70;;;;;;;;;;5075447;28;20424;-84
2023/06/13 14:06:32;;;;;;;27.90;26.13;;;;;;;;;;5074140;28;20441;-86
2023/06/13 14:09:01;;;;;;;28.50;26.60;;;;;;;;;;5075254;28;20434;-84
2023/06/13 14:11:28;;;;;;;27.70;26.10;;;;;;;;;;5074779;28;20504;-77
2023/06/13 14:13:57;;;;;;;28.77;26.67;;;;;;;;;;5075069;28;20452;-78
2023/06/13 14:16:24;;;;;;;27.93;26.13;;;;;;;;;;5074955;28;20541;-77
2023/06/13 14:18:51;;;;;;;28.40;26.50;;;;;;;;;;5075238;28;20479;-78
2023/06/13 14:21:18;;;;;;;28.27;26.37;;;;;;;;;;5075275;28;20448;-77